Time,TemperatureF,DewpointF,PressureIn,WindDirection,WindDirectionDegrees,WindSpeedMPH,WindSpeedGustMPH,Humidity,HourlyPrecipIn,Conditions,Clouds,dailyrainin,SoftwareType,DateUTC
2013-03-17 00:00:00,29.5,29.0,30.27,North,0,0.0,0.0,98,0.00,,---,0.00,VWS V13.01,2013-03-17 07:00:00,
2013-03-17 00:05:00,30.0,29.5,30.27,North,0,0.0,0.0,98,0.00,,---,0.00,VWS V13.01,2013-03-17 07:05:00,
2013-03-17 00:10:00,30.0,29.5,30.27,North,0,0.0,0.0,98,0.00,,---,0.00,VWS V13.01,2013-03-17 07:10:00,
2013-03-17 00:15:00,30.2,29.7,30.27,North,0,0.0,0.0,98,0.00,,---,0.00,VWS V13.01,2013-03-17 07:15:00,
2013-03-17 00:20:00,30.4,29.9,30.27,North,0,0.0,0.0,98,0.00,,---,0.00,VWS V13.01,2013-03-17 07:20:00,
2013-03-17 00:25:00,30.6,30.1,30.27,North,0,0.0,0.0,98,0.00,,---,0.00,VWS V13.01,2013-03-17 07:25:00,
2013-03-17 00:30:00,30.4,29.9,30.27,North,0,0.0,0.0,98,0.00,,---,0.00,VWS V13.01,2013-03-17 07:30:00,
2013-03-17 00:35:00,30.4,29.9,30.27,North,0,0.0,0.0,98,0.00,,---,0.00,VWS V13.01,2013-03-17 07:35:00,
2013-03-17 00:40:00,30.6,30.1,30.27,North,0,0.0,0.0,98,0.00,,---,0.00,VWS V13.01,2013-03-17 07:40:00,
2013-03-17 00:45:00,30.6,30.1,30.27,North,0,0.0,0.0,98,0.00,,---,0.00,VWS V13.01,2013-03-17 07:45:00,
2013-03-17 00:50:00,30.6,30.1,30.27,North,0,0.0,0.0,98,0.00,,---,0.00,VWS V13.01,2013-03-17 07:50:00,
2013-03-17 00:55:00,30.6,30.1,30.27,North,0,0.0,0.0,98,0.00,,---,0.00,VWS V13.01,2013-03-17 07:55:00,
2013-03-17 01:00:00,30.6,30.1,30.27,North,0,2.2,2.2,98,0.00,,---,0.00,VWS V13.01,2013-03-17 08:00:00,
2013-03-17 01:05:00,30.6,30.1,30.27,North,0,0.0,0.0,98,0.00,,---,0.00,VWS V13.01,2013-03-17 08:05:00,
2013-03-17 01:10:00,30.6,30.1,30.27,North,0,0.0,0.0,98,0.00,,---,0.00,VWS V13.01,2013-03-17 08:10:00,
2013-03-17 01:15:00,31.1,30.6,30.27,NE,45,4.9,4.9,98,0.00,,---,0.00,VWS V13.01,2013-03-17 08:15:00,
2013-03-17 01:20:00,31.8,30.5,30.27,NNE,22,5.4,5.4,95,0.00,,---,0.00,VWS V13.01,2013-03-17 08:20:00,
2013-03-17 01:25:00,32.0,29.9,30.27,NE,45,3.1,4.9,92,0.00,,---,0.00,VWS V13.01,2013-03-17 08:25:00,
2013-03-17 01:30:00,31.8,28.7,30.27,NE,45,4.0,4.0,88,0.00,,---,0.00,VWS V13.01,2013-03-17 08:30:00,
2013-03-17 01:35:00,31.6,28.2,30.27,NE,45,5.4,5.4,87,0.00,,---,0.00,VWS V13.01,2013-03-17 08:35:00,
2013-03-17 01:40:00,31.8,27.5,30.27,NNE,22,0.0,6.3,84,0.00,,---,0.00,VWS V13.01,2013-03-17 08:40:00,
2013-03-17 01:45:00,31.8,27.0,30.27,NE,45,3.6,3.6,82,0.00,,---,0.00,VWS V13.01,2013-03-17 08:45:00,
2013-03-17 01:50:00,31.8,26.1,30.27,North,0,4.9,5.4,79,0.00,,---,0.00,VWS V13.01,2013-03-17 08:50:00,
2013-03-17 01:55:00,31.8,25.8,30.27,NE,45,2.7,2.7,78,0.00,,---,0.00,VWS V13.01,2013-03-17 08:55:00,
2013-03-17 02:00:00,31.8,25.4,30.27,NE,45,4.0,6.3,77,0.00,,---,0.00,VWS V13.01,2013-03-17 09:00:00,
2013-03-17 02:05:00,31.6,25.6,30.27,NE,45,2.7,5.4,78,0.00,,---,0.00,VWS V13.01,2013-03-17 09:05:00,
2013-03-17 02:10:00,32.0,25.6,30.27,NE,45,6.3,6.3,77,0.00,,---,0.00,VWS V13.01,2013-03-17 09:10:00,
2013-03-17 02:15:00,31.8,25.1,30.27,NE,45,4.0,6.3,76,0.00,,---,0.00,VWS V13.01,2013-03-17 09:15:00,
2013-03-17 02:20:00,31.8,24.5,30.27,NNE,22,2.7,3.1,74,0.00,,---,0.00,VWS V13.01,2013-03-17 09:20:00,
2013-03-17 02:25:00,31.6,24.0,30.27,NE,45,5.8,5.8,73,0.00,,---,0.00,VWS V13.01,2013-03-17 09:25:00,
2013-03-17 02:30:00,31.5,23.5,30.27,NE,45,0.0,2.2,72,0.00,,---,0.00,VWS V13.01,2013-03-17 09:30:00,
2013-03-17 02:35:00,31.5,23.2,30.30,NE,45,9.2,9.2,71,0.00,,---,0.00,VWS V13.01,2013-03-17 09:35:00,
2013-03-17 02:40:00,31.6,22.6,30.30,NE,45,5.4,5.4,69,0.00,,---,0.00,VWS V13.01,2013-03-17 09:40:00,
2013-03-17 02:45:00,31.6,22.3,30.30,NE,45,5.4,5.4,68,0.00,,---,0.00,VWS V13.01,2013-03-17 09:45:00,
2013-03-17 02:50:00,31.6,22.0,30.30,NNE,22,6.3,8.1,67,0.00,,---,0.00,VWS V13.01,2013-03-17 09:50:00,
2013-03-17 02:55:00,31.6,21.6,30.30,North,0,6.3,6.3,66,0.00,,---,0.00,VWS V13.01,2013-03-17 09:55:00,
2013-03-17 03:00:00,31.8,21.4,30.30,NE,45,5.8,6.7,65,0.00,,---,0.00,VWS V13.01,2013-03-17 10:00:00,
2013-03-17 03:05:00,31.6,21.2,30.30,North,0,7.2,7.2,65,0.00,,---,0.00,VWS V13.01,2013-03-17 10:05:00,
2013-03-17 03:10:00,31.6,20.9,30.30,NNE,22,3.6,4.0,64,0.00,,---,0.00,VWS V13.01,2013-03-17 10:10:00,
2013-03-17 03:15:00,31.6,20.5,30.30,NNE,22,6.3,6.3,63,0.00,,---,0.00,VWS V13.01,2013-03-17 10:15:00,
2013-03-17 03:20:00,31.6,20.5,30.30,North,0,3.1,4.9,63,0.00,,---,0.00,VWS V13.01,2013-03-17 10:20:00,
2013-03-17 03:25:00,31.6,20.5,30.30,NNE,22,5.8,5.8,63,0.00,,---,0.00,VWS V13.01,2013-03-17 10:25:00,
2013-03-17 03:30:00,31.6,20.1,30.30,North,0,3.1,3.6,62,0.00,,---,0.00,VWS V13.01,2013-03-17 10:30:00,
2013-03-17 03:35:00,31.3,20.2,30.30,NNE,22,4.0,4.0,63,0.00,,---,0.00,VWS V13.01,2013-03-17 10:35:00,
2013-03-17 03:40:00,31.3,19.8,30.30,North,0,4.0,5.4,62,0.00,,---,0.00,VWS V13.01,2013-03-17 10:40:00,
2013-03-17 03:45:00,30.9,19.5,30.30,NE,45,3.1,3.6,62,0.00,,---,0.00,VWS V13.01,2013-03-17 10:45:00,
2013-03-17 03:50:00,30.7,19.3,30.30,NE,45,0.0,2.2,62,0.00,,---,0.00,VWS V13.01,2013-03-17 10:50:00,
2013-03-17 03:55:00,30.4,19.3,30.30,NNE,22,0.0,0.0,63,0.00,,---,0.00,VWS V13.01,2013-03-17 10:55:00,
2013-03-17 04:00:00,29.8,19.2,30.30,NNE,22,0.0,0.0,64,0.00,,---,0.00,VWS V13.01,2013-03-17 11:00:00,
2013-03-17 04:05:00,29.7,19.0,30.30,NNE,22,0.0,0.0,64,0.00,,---,0.00,VWS V13.01,2013-03-17 11:05:00,
2013-03-17 04:10:00,28.9,19.0,30.30,NNE,22,0.0,0.0,66,0.00,,---,0.00,VWS V13.01,2013-03-17 11:10:00,
2013-03-17 04:15:00,28.8,19.2,30.30,NNE,22,0.0,0.0,67,0.00,,---,0.00,VWS V13.01,2013-03-17 11:15:00,
2013-03-17 04:20:00,28.9,19.7,30.30,NNE,22,0.0,0.0,68,0.00,,---,0.00,VWS V13.01,2013-03-17 11:20:00,
2013-03-17 04:25:00,28.4,19.5,30.30,NNE,22,2.7,2.7,69,0.00,,---,0.00,VWS V13.01,2013-03-17 11:25:00,
2013-03-17 04:30:00,28.2,19.4,30.30,NNE,22,0.0,0.0,69,0.00,,---,0.00,VWS V13.01,2013-03-17 11:30:00,
2013-03-17 04:35:00,27.9,19.0,30.33,NNE,22,0.0,0.0,69,0.00,,---,0.00,VWS V13.01,2013-03-17 11:35:00,
2013-03-17 04:40:00,27.7,19.2,30.33,NNE,22,0.0,0.0,70,0.00,,---,0.00,VWS V13.01,2013-03-17 11:40:00,
2013-03-17 04:45:00,27.5,19.4,30.33,NNE,22,0.0,0.0,71,0.00,,---,0.00,VWS V13.01,2013-03-17 11:45:00,
2013-03-17 04:50:00,27.1,19.3,30.33,NNE,22,0.0,0.0,72,0.00,,---,0.00,VWS V13.01,2013-03-17 11:50:00,
2013-03-17 04:55:00,26.2,18.5,30.33,NNE,22,0.0,0.0,72,0.00,,---,0.00,VWS V13.01,2013-03-17 11:55:00,
2013-03-17 05:00:00,26.1,18.9,30.33,NNE,22,0.0,0.0,74,0.00,,---,0.00,VWS V13.01,2013-03-17 12:00:00,
2013-03-17 05:05:00,25.5,18.4,30.33,NNE,22,0.0,0.0,74,0.00,,---,0.00,VWS V13.01,2013-03-17 12:05:00,
2013-03-17 05:10:00,25.2,18.4,30.33,NNE,22,0.0,0.0,75,0.00,,---,0.00,VWS V13.01,2013-03-17 12:10:00,
2013-03-17 05:15:00,25.0,18.5,30.33,NNE,22,0.0,0.0,76,0.00,,---,0.00,VWS V13.01,2013-03-17 12:15:00,
2013-03-17 05:20:00,24.6,18.5,30.33,NNE,22,0.0,0.0,77,0.00,,---,0.00,VWS V13.01,2013-03-17 12:20:00,
2013-03-17 05:25:00,24.1,18.2,30.33,NNE,22,0.0,0.0,78,0.00,,---,0.00,VWS V13.01,2013-03-17 12:25:00,
2013-03-17 05:30:00,24.3,18.7,30.33,NNE,22,0.0,0.0,79,0.00,,---,0.00,VWS V13.01,2013-03-17 12:30:00,
2013-03-17 05:35:00,24.4,19.2,30.33,NNE,22,0.0,0.0,80,0.00,,---,0.00,VWS V13.01,2013-03-17 12:35:00,
2013-03-17 05:40:00,24.4,19.2,30.33,NNE,22,2.7,2.7,80,0.00,,---,0.00,VWS V13.01,2013-03-17 12:40:00,
2013-03-17 05:45:00,24.4,19.2,30.33,NNE,22,0.0,0.0,80,0.00,,---,0.00,VWS V13.01,2013-03-17 12:45:00,
2013-03-17 05:50:00,24.4,19.2,30.33,NNE,22,0.0,0.0,80,0.00,,---,0.00,VWS V13.01,2013-03-17 12:50:00,
2013-03-17 05:55:00,23.9,18.6,30.33,NNE,22,0.0,0.0,80,0.00,,---,0.00,VWS V13.01,2013-03-17 12:55:00,
2013-03-17 06:00:00,23.5,18.3,30.33,NNE,22,0.0,0.0,80,0.00,,---,0.00,VWS V13.01,2013-03-17 13:00:00,
2013-03-17 06:05:00,23.0,17.8,30.33,NNE,22,2.2,2.2,80,0.00,,---,0.00,VWS V13.01,2013-03-17 13:05:00,
2013-03-17 06:10:00,23.0,18.0,30.33,NNE,22,0.0,0.0,81,0.00,,---,0.00,VWS V13.01,2013-03-17 13:10:00,
2013-03-17 06:15:00,23.2,18.2,30.33,NNE,22,0.0,0.0,81,0.00,,---,0.00,VWS V13.01,2013-03-17 13:15:00,
2013-03-17 06:20:00,23.2,18.2,30.36,NNE,22,2.7,2.7,81,0.00,,---,0.00,VWS V13.01,2013-03-17 13:20:00,
2013-03-17 06:25:00,23.5,18.6,30.36,NNE,22,0.0,0.0,81,0.00,,---,0.00,VWS V13.01,2013-03-17 13:25:00,
2013-03-17 06:30:00,23.5,18.3,30.36,NNE,22,2.2,2.2,80,0.00,,---,0.00,VWS V13.01,2013-03-17 13:30:00,
2013-03-17 06:34:00,23.5,18.3,30.36,NNE,22,0.0,0.0,80,0.00,,---,0.00,VWS V13.01,2013-03-17 13:34:00,
2013-03-17 06:39:00,23.9,18.4,30.36,NNE,22,4.9,4.9,79,0.00,,---,0.00,VWS V13.01,2013-03-17 13:39:00,
2013-03-17 06:44:00,24.3,18.4,30.36,NNE,22,2.7,2.7,78,0.00,,---,0.00,VWS V13.01,2013-03-17 13:44:00,
2013-03-17 06:49:00,25.5,18.4,30.36,NNE,22,3.1,3.1,74,0.00,,---,0.00,VWS V13.01,2013-03-17 13:49:00,
2013-03-17 06:54:00,26.2,17.5,30.36,NNE,22,0.0,2.7,69,0.00,,---,0.00,VWS V13.01,2013-03-17 13:54:00,
2013-03-17 06:59:00,26.4,17.0,30.36,NNE,22,0.0,2.7,67,0.00,,---,0.00,VWS V13.01,2013-03-17 13:59:00,
2013-03-17 07:04:00,27.1,16.2,30.36,North,0,0.0,3.6,63,0.00,,---,0.00,VWS V13.01,2013-03-17 14:04:00,
2013-03-17 07:09:00,27.3,15.7,30.36,North,0,5.4,5.4,61,0.00,,---,0.00,VWS V13.01,2013-03-17 14:09:00,
2013-03-17 07:14:00,27.9,15.4,30.36,NNW,338,3.6,5.4,59,0.00,,---,0.00,VWS V13.01,2013-03-17 14:14:00,
2013-03-17 07:19:00,27.9,15.0,30.36,North,0,3.1,4.0,58,0.00,,---,0.00,VWS V13.01,2013-03-17 14:19:00,
2013-03-17 07:24:00,27.9,15.0,30.36,North,0,5.8,5.8,58,0.00,,---,0.00,VWS V13.01,2013-03-17 14:24:00,
2013-03-17 07:29:00,27.9,15.0,30.36,NW,315,4.9,4.9,58,0.00,,---,0.00,VWS V13.01,2013-03-17 14:29:00,
2013-03-17 07:34:00,27.9,15.0,30.36,NW,315,0.0,0.0,58,0.00,,---,0.00,VWS V13.01,2013-03-17 14:34:00,
2013-03-17 07:39:00,27.5,14.7,30.39,NW,315,0.0,0.0,58,0.00,,---,0.00,VWS V13.01,2013-03-17 14:39:00,
2013-03-17 07:44:00,27.1,14.7,30.39,NW,315,0.0,0.0,59,0.00,,---,0.00,VWS V13.01,2013-03-17 14:44:00,
2013-03-17 07:49:00,27.0,14.9,30.39,NW,315,0.0,0.0,60,0.00,,---,0.00,VWS V13.01,2013-03-17 14:49:00,
2013-03-17 07:54:00,26.8,15.1,30.39,NW,315,0.0,0.0,61,0.00,,---,0.00,VWS V13.01,2013-03-17 14:54:00,
2013-03-17 07:59:00,26.4,15.2,30.39,NW,315,0.0,0.0,62,0.00,,---,0.00,VWS V13.01,2013-03-17 14:59:00,
2013-03-17 08:04:00,26.1,15.6,30.39,NW,315,0.0,0.0,64,0.00,,---,0.00,VWS V13.01,2013-03-17 15:04:00,
2013-03-17 08:09:00,26.1,15.2,30.39,NW,315,0.0,0.0,63,0.00,,---,0.00,VWS V13.01,2013-03-17 15:09:00,
2013-03-17 08:14:00,26.2,15.7,30.39,NW,315,0.0,0.0,64,0.00,,---,0.00,VWS V13.01,2013-03-17 15:14:00,
2013-03-17 08:19:00,26.6,15.7,30.39,NW,315,0.0,0.0,63,0.00,,---,0.00,VWS V13.01,2013-03-17 15:19:00,
2013-03-17 08:24:00,27.0,16.1,30.39,NW,315,0.0,0.0,63,0.00,,---,0.00,VWS V13.01,2013-03-17 15:24:00,
2013-03-17 08:29:00,27.7,16.4,30.39,NW,315,0.0,0.0,62,0.00,,---,0.00,VWS V13.01,2013-03-17 15:29:00,
2013-03-17 08:34:00,28.6,15.7,30.39,NW,315,0.0,0.0,58,0.00,,---,0.00,VWS V13.01,2013-03-17 15:34:00,
2013-03-17 08:39:00,28.6,15.7,30.39,NW,315,0.0,2.2,58,0.00,,---,0.00,VWS V13.01,2013-03-17 15:39:00,
2013-03-17 08:44:00,29.7,15.1,30.39,NW,315,2.2,2.2,54,0.00,,---,0.00,VWS V13.01,2013-03-17 15:44:00,
2013-03-17 08:49:00,30.7,15.2,30.39,NW,315,0.0,0.0,52,0.00,,---,0.00,VWS V13.01,2013-03-17 15:49:00,
2013-03-17 08:54:00,31.3,15.7,30.39,NW,315,0.0,3.1,52,0.00,,---,0.00,VWS V13.01,2013-03-17 15:54:00,
2013-03-17 08:59:00,32.5,16.4,30.39,NW,315,0.0,2.7,51,0.00,,---,0.00,VWS V13.01,2013-03-17 15:59:00,
2013-03-17 09:04:00,33.1,16.5,30.39,NE,45,0.0,2.7,50,0.00,,---,0.00,VWS V13.01,2013-03-17 16:04:00,
2013-03-17 09:09:00,33.6,16.5,30.39,NE,45,2.2,2.2,49,0.00,,---,0.00,VWS V13.01,2013-03-17 16:09:00,
2013-03-17 09:14:00,34.5,16.4,30.39,NE,45,2.7,2.7,47,0.00,,---,0.00,VWS V13.01,2013-03-17 16:14:00,
2013-03-17 09:19:00,34.9,16.2,30.39,ENE,68,4.0,4.9,46,0.00,,---,0.00,VWS V13.01,2013-03-17 16:19:00,
2013-03-17 09:24:00,35.1,15.9,30.41,NE,45,3.6,5.8,45,0.00,,---,0.00,VWS V13.01,2013-03-17 16:24:00,
2013-03-17 09:29:00,35.4,15.7,30.41,ENE,68,2.7,3.6,44,0.00,,---,0.00,VWS V13.01,2013-03-17 16:29:00,
2013-03-17 09:34:00,35.4,15.7,30.41,NE,45,2.7,3.6,44,0.00,,---,0.00,VWS V13.01,2013-03-17 16:34:00,
2013-03-17 09:39:00,35.4,15.7,30.41,NE,45,2.7,3.6,44,0.00,,---,0.00,VWS V13.01,2013-03-17 16:39:00,
2013-03-17 09:44:00,36.7,16.8,30.41,SE,135,0.0,3.1,44,0.00,,---,0.00,VWS V13.01,2013-03-17 16:44:00,
2013-03-17 09:49:00,36.7,16.3,30.41,NE,45,2.7,7.2,43,0.00,,---,0.00,VWS V13.01,2013-03-17 16:49:00,
2013-03-17 09:54:00,37.2,16.8,30.41,ESE,112,2.2,3.1,43,0.00,,---,0.00,VWS V13.01,2013-03-17 16:54:00,
2013-03-17 09:59:00,36.7,16.3,30.41,East,90,4.0,4.9,43,0.00,,---,0.00,VWS V13.01,2013-03-17 16:59:00,
2013-03-17 10:04:00,35.6,14.8,30.41,East,90,3.1,8.3,42,0.00,,---,0.00,VWS V13.01,2013-03-17 17:04:00,
2013-03-17 10:09:00,36.3,16.0,30.41,NE,45,3.6,3.6,43,0.00,,---,0.00,VWS V13.01,2013-03-17 17:09:00,
2013-03-17 10:14:00,36.1,15.3,30.41,NE,45,2.2,7.2,42,0.00,,---,0.00,VWS V13.01,2013-03-17 17:14:00,
2013-03-17 10:19:00,36.3,15.4,30.41,NE,45,3.1,5.4,42,0.00,,---,0.00,VWS V13.01,2013-03-17 17:19:00,
2013-03-17 10:24:00,35.8,14.9,30.41,NNE,22,5.8,7.2,42,0.00,,---,0.00,VWS V13.01,2013-03-17 17:24:00,
2013-03-17 10:29:00,36.7,16.3,30.41,ENE,68,4.5,4.5,43,0.00,,---,0.00,VWS V13.01,2013-03-17 17:29:00,
2013-03-17 10:34:00,36.3,15.4,30.41,East,90,2.2,3.6,42,0.00,,---,0.00,VWS V13.01,2013-03-17 17:34:00,
2013-03-17 10:39:00,37.8,16.2,30.41,East,90,2.7,3.1,41,0.00,,---,0.00,VWS V13.01,2013-03-17 17:39:00,
2013-03-17 10:44:00,37.0,15.5,30.41,NE,45,8.7,8.7,41,0.00,,---,0.00,VWS V13.01,2013-03-17 17:44:00,
2013-03-17 10:49:00,37.0,15.5,30.41,NE,45,3.6,6.3,41,0.00,,---,0.00,VWS V13.01,2013-03-17 17:49:00,
2013-03-17 10:54:00,36.5,15.1,30.41,NE,45,3.1,8.3,41,0.00,,---,0.00,VWS V13.01,2013-03-17 17:54:00,
2013-03-17 10:59:00,36.9,15.4,30.41,NE,45,8.1,8.1,41,0.00,,---,0.00,VWS V13.01,2013-03-17 17:59:00,
2013-03-17 11:04:00,37.0,15.5,30.41,North,0,4.0,4.9,41,0.00,,---,0.00,VWS V13.01,2013-03-17 18:04:00,
2013-03-17 11:09:00,36.9,15.4,30.41,North,0,7.2,8.1,41,0.00,,---,0.00,VWS V13.01,2013-03-17 18:09:00,
2013-03-17 11:14:00,38.7,16.4,30.41,SE,135,5.4,5.4,40,0.00,,---,0.00,VWS V13.01,2013-03-17 18:14:00,
2013-03-17 11:19:00,39.7,17.4,30.41,SE,135,2.2,4.0,40,0.00,,---,0.00,VWS V13.01,2013-03-17 18:19:00,
2013-03-17 11:24:00,40.6,17.6,30.41,North,0,0.0,2.7,39,0.00,,---,0.00,VWS V13.01,2013-03-17 18:24:00,
2013-03-17 11:29:00,40.1,17.1,30.41,East,90,3.6,3.6,39,0.00,,---,0.00,VWS V13.01,2013-03-17 18:29:00,
2013-03-17 11:34:00,38.8,16.6,30.41,NE,45,8.1,8.7,40,0.00,,---,0.00,VWS V13.01,2013-03-17 18:34:00,
2013-03-17 11:39:00,39.0,16.8,30.41,NE,45,5.8,8.1,40,0.00,,---,0.00,VWS V13.01,2013-03-17 18:39:00,
2013-03-17 11:44:00,38.7,16.4,30.41,NE,45,4.0,4.5,40,0.00,,---,0.00,VWS V13.01,2013-03-17 18:44:00,
2013-03-17 11:49:00,39.0,16.8,30.41,SE,135,4.0,4.9,40,0.00,,---,0.00,VWS V13.01,2013-03-17 18:49:00,
2013-03-17 11:54:00,40.5,17.5,30.41,SE,135,2.7,3.6,39,0.00,,---,0.00,VWS V13.01,2013-03-17 18:54:00,
2013-03-17 11:59:00,41.2,17.5,30.41,SW,225,2.7,4.0,38,0.00,,---,0.00,VWS V13.01,2013-03-17 18:59:00,
2013-03-17 12:04:00,41.5,17.8,30.41,NE,45,2.2,3.6,38,0.00,,---,0.00,VWS V13.01,2013-03-17 19:04:00,
2013-03-17 12:09:00,41.7,18.0,30.41,East,90,2.2,2.2,38,0.00,,---,0.00,VWS V13.01,2013-03-17 19:09:00,
2013-03-17 12:14:00,40.5,16.9,30.41,NE,45,5.8,8.1,38,0.00,,---,0.00,VWS V13.01,2013-03-17 19:14:00,
2013-03-17 12:19:00,39.6,16.1,30.41,South,180,3.1,3.1,38,0.00,,---,0.00,VWS V13.01,2013-03-17 19:19:00,
2013-03-17 12:24:00,41.2,16.9,30.41,SSE,158,3.6,3.6,37,0.00,,---,0.00,VWS V13.01,2013-03-17 19:24:00,
2013-03-17 12:29:00,42.1,17.7,30.41,NE,45,2.2,4.0,37,0.00,,---,0.00,VWS V13.01,2013-03-17 19:29:00,
2013-03-17 12:34:00,41.5,16.6,30.41,NW,315,3.6,5.4,36,0.00,,---,0.00,VWS V13.01,2013-03-17 19:34:00,
2013-03-17 12:39:00,43.3,18.2,30.41,SE,135,2.2,2.7,36,0.00,,---,0.00,VWS V13.01,2013-03-17 19:39:00,
2013-03-17 12:44:00,42.8,17.1,30.41,SW,225,2.7,2.7,35,0.00,,---,0.00,VWS V13.01,2013-03-17 19:44:00,
2013-03-17 12:49:00,43.5,17.7,30.41,West,270,2.2,3.6,35,0.00,,---,0.00,VWS V13.01,2013-03-17 19:49:00,
2013-03-17 12:54:00,43.5,17.7,30.39,SW,225,0.0,2.2,35,0.00,,---,0.00,VWS V13.01,2013-03-17 19:54:00,
2013-03-17 12:59:00,44.2,18.3,30.39,SW,225,4.0,4.0,35,0.00,,---,0.00,VWS V13.01,2013-03-17 19:59:00,
2013-03-17 13:04:00,44.1,18.2,30.39,South,180,2.7,3.6,35,0.00,,---,0.00,VWS V13.01,2013-03-17 20:04:00,
2013-03-17 13:09:00,43.5,17.7,30.39,SW,225,3.6,5.8,35,0.00,,---,0.00,VWS V13.01,2013-03-17 20:09:00,
2013-03-17 13:14:00,45.3,19.3,30.39,SSW,202,3.1,3.1,35,0.00,,---,0.00,VWS V13.01,2013-03-17 20:14:00,
2013-03-17 13:19:00,45.5,19.5,30.39,SW,225,3.6,3.6,35,0.00,,---,0.00,VWS V13.01,2013-03-17 20:19:00,
2013-03-17 13:24:00,44.4,18.5,30.39,South,180,2.7,4.0,35,0.00,,---,0.00,VWS V13.01,2013-03-17 20:24:00,
2013-03-17 13:29:00,45.3,18.6,30.39,South,180,3.1,3.1,34,0.00,,---,0.00,VWS V13.01,2013-03-17 20:29:00,
2013-03-17 13:34:00,44.6,18.0,30.39,South,180,4.9,4.9,34,0.00,,---,0.00,VWS V13.01,2013-03-17 20:34:00,
2013-03-17 13:39:00,45.7,18.9,30.39,South,180,2.2,7.6,34,0.00,,---,0.00,VWS V13.01,2013-03-17 20:39:00,
2013-03-17 13:44:00,45.3,18.6,30.39,West,270,4.5,4.5,34,0.00,,---,0.00,VWS V13.01,2013-03-17 20:44:00,
2013-03-17 13:49:00,45.9,19.1,30.39,SW,225,3.6,6.3,34,0.00,,---,0.00,VWS V13.01,2013-03-17 20:49:00,
2013-03-17 13:54:00,45.1,18.5,30.39,South,180,4.0,4.0,34,0.00,,---,0.00,VWS V13.01,2013-03-17 20:54:00,
2013-03-17 13:59:00,44.8,17.5,30.39,SW,225,2.7,3.1,33,0.00,,---,0.00,VWS V13.01,2013-03-17 20:59:00,
2013-03-17 14:04:00,45.5,18.1,30.39,WNW,292,2.7,3.6,33,0.00,,---,0.00,VWS V13.01,2013-03-17 21:04:00,
2013-03-17 14:09:00,46.0,19.3,30.39,North,0,2.2,4.0,34,0.00,,---,0.00,VWS V13.01,2013-03-17 21:09:00,
2013-03-17 14:14:00,47.3,19.7,30.39,North,0,2.7,2.7,33,0.00,,---,0.00,VWS V13.01,2013-03-17 21:14:00,
2013-03-17 14:19:00,46.2,18.7,30.39,NE,45,3.1,3.1,33,0.00,,---,0.00,VWS V13.01,2013-03-17 21:19:00,
2013-03-17 14:24:00,46.4,18.9,30.36,SSW,202,3.1,3.1,33,0.00,,---,0.00,VWS V13.01,2013-03-17 21:24:00,
2013-03-17 14:29:00,45.1,17.8,30.36,North,0,4.0,4.9,33,0.00,,---,0.00,VWS V13.01,2013-03-17 21:29:00,
2013-03-17 14:34:00,44.6,18.0,30.36,North,0,8.1,8.1,34,0.00,,---,0.00,VWS V13.01,2013-03-17 21:34:00,
2013-03-17 14:39:00,44.8,18.1,30.36,North,0,7.2,7.2,34,0.00,,---,0.00,VWS V13.01,2013-03-17 21:39:00,
2013-03-17 14:44:00,45.5,18.8,30.36,NNE,22,10.5,10.5,34,0.00,,---,0.00,VWS V13.01,2013-03-17 21:44:00,
2013-03-17 14:49:00,44.6,18.7,30.36,North,0,8.7,8.7,35,0.00,,---,0.00,VWS V13.01,2013-03-17 21:49:00,
2013-03-17 14:54:00,44.6,18.7,30.36,North,0,3.6,4.9,35,0.00,,---,0.00,VWS V13.01,2013-03-17 21:54:00,
2013-03-17 14:59:00,44.1,18.2,30.36,West,270,4.9,8.7,35,0.00,,---,0.00,VWS V13.01,2013-03-17 21:59:00,
2013-03-17 15:04:00,45.3,18.6,30.36,NW,315,8.3,8.7,34,0.00,,---,0.00,VWS V13.01,2013-03-17 22:04:00,
2013-03-17 15:09:00,44.6,18.0,30.39,North,0,8.1,8.7,34,0.00,,---,0.00,VWS V13.01,2013-03-17 22:09:00,
2013-03-17 15:14:00,44.2,18.3,30.39,North,0,11.0,11.0,35,0.00,,---,0.00,VWS V13.01,2013-03-17 22:14:00,
2013-03-17 15:19:00,44.2,18.3,30.39,North,0,5.8,8.7,35,0.00,,---,0.00,VWS V13.01,2013-03-17 22:19:00,
2013-03-17 15:24:00,43.7,18.5,30.36,North,0,9.2,9.2,36,0.00,,---,0.00,VWS V13.01,2013-03-17 22:24:00,
2013-03-17 15:29:00,42.8,17.7,30.36,North,0,11.4,11.4,36,0.00,,---,0.00,VWS V13.01,2013-03-17 22:29:00,
2013-03-17 15:34:00,42.8,17.7,30.36,North,0,5.8,5.8,36,0.00,,---,0.00,VWS V13.01,2013-03-17 22:34:00,
2013-03-17 15:39:00,42.4,18.0,30.36,NNE,22,12.3,12.3,37,0.00,,---,0.00,VWS V13.01,2013-03-17 22:39:00,
2013-03-17 15:44:00,42.4,17.4,30.36,North,0,6.3,6.3,36,0.00,,---,0.00,VWS V13.01,2013-03-17 22:44:00,
2013-03-17 15:49:00,42.8,17.7,30.36,North,0,8.1,11.0,36,0.00,,---,0.00,VWS V13.01,2013-03-17 22:49:00,
2013-03-17 15:54:00,42.4,17.4,30.36,NE,45,12.8,12.8,36,0.00,,---,0.00,VWS V13.01,2013-03-17 22:54:00,
2013-03-17 15:59:00,42.3,17.2,30.36,North,0,5.8,5.8,36,0.00,,---,0.00,VWS V13.01,2013-03-17 22:59:00,
2013-03-17 16:04:00,42.1,17.1,30.36,NW,315,3.6,12.8,36,0.00,,---,0.00,VWS V13.01,2013-03-17 23:04:00,
2013-03-17 16:09:00,41.9,18.2,30.39,North,0,9.2,9.2,38,0.00,,---,0.00,VWS V13.01,2013-03-17 23:09:00,
2013-03-17 16:14:00,41.9,18.2,30.39,North,0,5.4,10.1,38,0.00,,---,0.00,VWS V13.01,2013-03-17 23:14:00,
2013-03-17 16:19:00,41.4,17.7,30.39,North,0,11.0,11.0,38,0.00,,---,0.00,VWS V13.01,2013-03-17 23:19:00,
2013-03-17 16:24:00,41.7,18.0,30.36,North,0,7.6,8.1,38,0.00,,---,0.00,VWS V13.01,2013-03-17 23:24:00,
2013-03-17 16:29:00,41.5,17.8,30.36,NW,315,8.3,8.3,38,0.00,,---,0.00,VWS V13.01,2013-03-17 23:29:00,
2013-03-17 16:34:00,41.0,17.4,30.36,North,0,9.2,9.2,38,0.00,,---,0.00,VWS V13.01,2013-03-17 23:34:00,
2013-03-17 16:39:00,40.6,17.6,30.36,North,0,7.6,7.6,39,0.00,,---,0.00,VWS V13.01,2013-03-17 23:39:00,
2013-03-17 16:44:00,40.3,17.3,30.36,North,0,8.7,8.7,39,0.00,,---,0.00,VWS V13.01,2013-03-17 23:44:00,
2013-03-17 16:49:00,40.3,17.3,30.36,NNE,22,13.2,13.2,39,0.00,,---,0.00,VWS V13.01,2013-03-17 23:49:00,
2013-03-17 16:54:00,40.5,17.5,30.39,NNE,22,9.2,9.2,39,0.00,,---,0.00,VWS V13.01,2013-03-17 23:54:00,
2013-03-17 16:59:00,40.5,17.5,30.39,North,0,5.4,11.9,39,0.00,,---,0.00,VWS V13.01,2013-03-17 23:59:00,
2013-03-17 17:04:00,39.9,17.0,30.39,North,0,12.8,12.8,39,0.00,,---,0.00,VWS V13.01,2013-03-18 00:04:00,
2013-03-17 17:09:00,39.7,16.8,30.39,NW,315,5.8,8.3,39,0.00,,---,0.00,VWS V13.01,2013-03-18 00:09:00,
2013-03-17 17:14:00,39.2,16.9,30.39,NNW,338,7.6,7.6,40,0.00,,---,0.00,VWS V13.01,2013-03-18 00:14:00,
2013-03-17 17:19:00,38.8,16.6,30.39,NNW,338,16.3,16.3,40,0.00,,---,0.00,VWS V13.01,2013-03-18 00:19:00,
2013-03-17 17:24:00,38.8,16.6,30.39,North,0,7.2,7.6,40,0.00,,---,0.00,VWS V13.01,2013-03-18 00:24:00,
2013-03-17 17:29:00,38.7,17.0,30.39,North,0,9.6,9.6,41,0.00,,---,0.00,VWS V13.01,2013-03-18 00:29:00,
2013-03-17 17:34:00,38.7,17.0,30.39,North,0,8.3,8.7,41,0.00,,---,0.00,VWS V13.01,2013-03-18 00:34:00,
2013-03-17 17:39:00,38.5,16.8,30.39,North,0,8.1,11.9,41,0.00,,---,0.00,VWS V13.01,2013-03-18 00:39:00,
2013-03-17 17:44:00,38.3,16.7,30.39,West,270,5.8,6.7,41,0.00,,---,0.00,VWS V13.01,2013-03-18 00:44:00,
2013-03-17 17:49:00,37.9,16.9,30.39,North,0,9.2,10.1,42,0.00,,---,0.00,VWS V13.01,2013-03-18 00:49:00,
2013-03-17 17:54:00,37.9,16.9,30.39,North,0,4.0,8.3,42,0.00,,---,0.00,VWS V13.01,2013-03-18 00:54:00,
2013-03-17 17:59:00,37.6,16.6,30.39,North,0,5.8,9.6,42,0.00,,---,0.00,VWS V13.01,2013-03-18 00:59:00,
2013-03-17 18:04:00,37.8,16.8,30.39,NNE,22,4.9,8.1,42,0.00,,---,0.00,VWS V13.01,2013-03-18 01:04:00,
2013-03-17 18:09:00,37.8,17.3,30.39,North,0,6.7,6.7,43,0.00,,---,0.00,VWS V13.01,2013-03-18 01:09:00,
2013-03-17 18:14:00,37.8,17.3,30.39,North,0,5.8,6.3,43,0.00,,---,0.00,VWS V13.01,2013-03-18 01:14:00,
2013-03-17 18:19:00,37.6,16.6,30.39,NW,315,3.6,6.3,42,0.00,,---,0.00,VWS V13.01,2013-03-18 01:19:00,
2013-03-17 18:24:00,37.4,16.4,30.39,North,0,4.0,4.0,42,0.00,,---,0.00,VWS V13.01,2013-03-18 01:24:00,
2013-03-17 18:29:00,37.6,16.6,30.39,NW,315,4.0,4.0,42,0.00,,---,0.00,VWS V13.01,2013-03-18 01:29:00,
2013-03-17 18:34:00,37.6,16.6,30.39,NW,315,4.9,4.9,42,0.00,,---,0.00,VWS V13.01,2013-03-18 01:34:00,
2013-03-17 18:39:00,37.0,16.6,30.39,NE,45,5.8,7.2,43,0.00,,---,0.00,VWS V13.01,2013-03-18 01:39:00,
2013-03-17 18:44:00,37.0,16.6,30.39,North,0,3.6,5.8,43,0.00,,---,0.00,VWS V13.01,2013-03-18 01:44:00,
2013-03-17 18:49:00,36.7,16.3,30.39,NW,315,3.6,6.7,43,0.00,,---,0.00,VWS V13.01,2013-03-18 01:49:00,
2013-03-17 18:54:00,36.1,16.4,30.39,NE,45,4.9,5.4,44,0.00,,---,0.00,VWS V13.01,2013-03-18 01:54:00,
2013-03-17 18:59:00,35.8,16.0,30.39,North,0,3.1,3.6,44,0.00,,---,0.00,VWS V13.01,2013-03-18 01:59:00,
2013-03-17 19:04:00,35.4,16.2,30.39,NNW,338,3.1,3.1,45,0.00,,---,0.00,VWS V13.01,2013-03-18 02:04:00,
2013-03-17 19:09:00,35.1,16.4,30.39,North,0,6.7,8.1,46,0.00,,---,0.00,VWS V13.01,2013-03-18 02:09:00,
2013-03-17 19:14:00,34.7,16.5,30.39,North,0,3.6,4.0,47,0.00,,---,0.00,VWS V13.01,2013-03-18 02:14:00,
2013-03-17 19:19:00,34.5,16.9,30.39,North,0,2.7,2.7,48,0.00,,---,0.00,VWS V13.01,2013-03-18 02:19:00,
2013-03-17 19:24:00,34.2,17.0,30.39,NE,45,4.5,4.9,49,0.00,,---,0.00,VWS V13.01,2013-03-18 02:24:00,
2013-03-17 19:29:00,34.0,16.8,30.39,North,0,2.7,2.7,49,0.00,,---,0.00,VWS V13.01,2013-03-18 02:29:00,
2013-03-17 19:34:00,33.6,17.0,30.39,North,0,0.0,0.0,50,0.00,,---,0.00,VWS V13.01,2013-03-18 02:34:00,
2013-03-17 19:39:00,33.3,17.1,30.39,North,0,0.0,0.0,51,0.00,,---,0.00,VWS V13.01,2013-03-18 02:39:00,
2013-03-17 19:44:00,33.1,16.9,30.39,North,0,0.0,0.0,51,0.00,,---,0.00,VWS V13.01,2013-03-18 02:44:00,
2013-03-17 19:49:00,32.9,17.2,30.39,North,0,0.0,0.0,52,0.00,,---,0.00,VWS V13.01,2013-03-18 02:49:00,
2013-03-17 19:54:00,32.4,16.7,30.39,North,0,0.0,0.0,52,0.00,,---,0.00,VWS V13.01,2013-03-18 02:54:00,
2013-03-17 19:59:00,32.0,16.8,30.39,North,0,0.0,0.0,53,0.00,,---,0.00,VWS V13.01,2013-03-18 02:59:00,
2013-03-17 20:04:00,32.0,17.2,30.39,North,0,0.0,0.0,54,0.00,,---,0.00,VWS V13.01,2013-03-18 03:04:00,
2013-03-17 20:09:00,32.2,17.4,30.39,North,0,0.0,0.0,54,0.00,,---,0.00,VWS V13.01,2013-03-18 03:09:00,
2013-03-17 20:14:00,32.5,17.8,30.39,North,0,0.0,0.0,54,0.00,,---,0.00,VWS V13.01,2013-03-18 03:14:00,
2013-03-17 20:19:00,32.0,17.2,30.39,North,0,0.0,0.0,54,0.00,,---,0.00,VWS V13.01,2013-03-18 03:19:00,
2013-03-17 20:24:00,31.6,16.9,30.39,North,0,0.0,0.0,54,0.00,,---,0.00,VWS V13.01,2013-03-18 03:24:00,
2013-03-17 20:29:00,31.1,16.4,30.39,North,0,0.0,0.0,54,0.00,,---,0.00,VWS V13.01,2013-03-18 03:29:00,
2013-03-17 20:34:00,30.7,16.5,30.39,North,0,0.0,0.0,55,0.00,,---,0.00,VWS V13.01,2013-03-18 03:34:00,
2013-03-17 20:39:00,30.6,16.7,30.39,North,0,0.0,0.0,56,0.00,,---,0.00,VWS V13.01,2013-03-18 03:39:00,
2013-03-17 20:44:00,30.2,16.8,30.39,North,0,0.0,0.0,57,0.00,,---,0.00,VWS V13.01,2013-03-18 03:44:00,
2013-03-17 20:49:00,29.5,16.1,30.39,North,0,0.0,0.0,57,0.00,,---,0.00,VWS V13.01,2013-03-18 03:49:00,
2013-03-17 20:54:00,28.8,15.9,30.41,North,0,0.0,0.0,58,0.00,,---,0.00,VWS V13.01,2013-03-18 03:54:00,
2013-03-17 20:59:00,28.4,16.3,30.41,North,0,0.0,0.0,60,0.00,,---,0.00,VWS V13.01,2013-03-18 03:59:00,
2013-03-17 21:00:00,28.4,16.3,30.41,North,0,0.0,0.0,60,0.00,,---,0.00,VWS V13.01,2013-03-18 04:00:00,
2013-03-17 21:05:00,27.7,15.6,30.41,North,0,0.0,0.0,60,0.00,,---,0.00,VWS V13.01,2013-03-18 04:05:00,
2013-03-17 21:10:00,27.0,15.3,30.41,North,0,0.0,0.0,61,0.00,,---,0.00,VWS V13.01,2013-03-18 04:10:00,
2013-03-17 21:15:00,27.1,16.2,30.41,North,0,0.0,0.0,63,0.00,,---,0.00,VWS V13.01,2013-03-18 04:15:00,
2013-03-17 21:20:00,27.5,17.3,30.41,North,0,0.0,0.0,65,0.00,,---,0.00,VWS V13.01,2013-03-18 04:20:00,
2013-03-17 21:25:00,27.5,17.3,30.39,North,0,0.0,0.0,65,0.00,,---,0.00,VWS V13.01,2013-03-18 04:25:00,
2013-03-17 21:30:00,27.7,17.5,30.39,North,0,0.0,0.0,65,0.00,,---,0.00,VWS V13.01,2013-03-18 04:30:00,
2013-03-17 21:35:00,27.3,17.1,30.39,North,0,0.0,0.0,65,0.00,,---,0.00,VWS V13.01,2013-03-18 04:35:00,
2013-03-17 21:40:00,27.1,17.0,30.39,North,0,0.0,0.0,65,0.00,,---,0.00,VWS V13.01,2013-03-18 04:40:00,
2013-03-17 21:45:00,27.0,17.1,30.39,North,0,0.0,0.0,66,0.00,,---,0.00,VWS V13.01,2013-03-18 04:45:00,
2013-03-17 21:50:00,27.0,17.1,30.39,North,0,0.0,0.0,66,0.00,,---,0.00,VWS V13.01,2013-03-18 04:50:00,
2013-03-17 21:55:00,26.6,17.1,30.39,North,0,0.0,0.0,67,0.00,,---,0.00,VWS V13.01,2013-03-18 04:55:00,
2013-03-17 22:00:00,26.1,16.6,30.39,North,0,0.0,0.0,67,0.00,,---,0.00,VWS V13.01,2013-03-18 05:00:00,
2013-03-17 22:05:00,25.2,15.8,30.39,North,0,0.0,0.0,67,0.00,,---,0.00,VWS V13.01,2013-03-18 05:05:00,
2013-03-17 22:10:00,24.4,14.7,30.39,North,0,0.0,0.0,66,0.00,,---,0.00,VWS V13.01,2013-03-18 05:10:00,
2013-03-17 22:15:00,24.6,15.6,30.39,North,0,0.0,0.0,68,0.00,,---,0.00,VWS V13.01,2013-03-18 05:15:00,
2013-03-17 22:20:00,24.3,15.6,30.39,North,0,0.0,0.0,69,0.00,,---,0.00,VWS V13.01,2013-03-18 05:20:00,
2013-03-17 22:25:00,23.5,14.9,30.39,North,0,0.0,0.0,69,0.00,,---,0.00,VWS V13.01,2013-03-18 05:25:00,
2013-03-17 22:30:00,23.4,14.7,30.39,North,0,0.0,0.0,69,0.00,,---,0.00,VWS V13.01,2013-03-18 05:30:00,
2013-03-17 22:35:00,23.4,15.0,30.41,North,0,0.0,0.0,70,0.00,,---,0.00,VWS V13.01,2013-03-18 05:35:00,
2013-03-17 22:40:00,23.2,14.9,30.41,North,0,0.0,0.0,70,0.00,,---,0.00,VWS V13.01,2013-03-18 05:40:00,
2013-03-17 22:45:00,23.4,15.4,30.41,North,0,0.0,0.0,71,0.00,,---,0.00,VWS V13.01,2013-03-18 05:45:00,
2013-03-17 22:50:00,23.0,15.3,30.41,North,0,0.0,0.0,72,0.00,,---,0.00,VWS V13.01,2013-03-18 05:50:00,
2013-03-17 22:55:00,23.0,15.6,30.39,North,0,0.0,0.0,73,0.00,,---,0.00,VWS V13.01,2013-03-18 05:55:00,
2013-03-17 23:00:00,23.2,16.1,30.39,North,0,0.0,0.0,74,0.00,,---,0.00,VWS V13.01,2013-03-18 06:00:00,
2013-03-17 23:05:00,22.8,16.1,30.39,North,0,0.0,0.0,75,0.00,,---,0.00,VWS V13.01,2013-03-18 06:05:00,
2013-03-17 23:10:00,23.0,16.3,30.39,North,0,0.0,0.0,75,0.00,,---,0.00,VWS V13.01,2013-03-18 06:10:00,
2013-03-17 23:15:00,22.6,16.2,30.39,North,0,0.0,0.0,76,0.00,,---,0.00,VWS V13.01,2013-03-18 06:15:00,
2013-03-17 23:20:00,22.1,15.4,30.39,North,0,0.0,0.0,75,0.00,,---,0.00,VWS V13.01,2013-03-18 06:20:00,
2013-03-17 23:25:00,22.3,15.6,30.39,North,0,0.0,0.0,75,0.00,,---,0.00,VWS V13.01,2013-03-18 06:25:00,
2013-03-17 23:30:00,22.1,15.4,30.39,North,0,0.0,0.0,75,0.00,,---,0.00,VWS V13.01,2013-03-18 06:30:00,
2013-03-17 23:35:00,21.9,14.9,30.39,North,0,0.0,0.0,74,0.00,,---,0.00,VWS V13.01,2013-03-18 06:35:00,
2013-03-17 23:40:00,21.7,14.7,30.39,North,0,0.0,0.0,74,0.00,,---,0.00,VWS V13.01,2013-03-18 06:40:00,
2013-03-17 23:45:00,22.1,15.7,30.39,North,0,0.0,0.0,76,0.00,,---,0.00,VWS V13.01,2013-03-18 06:45:00,
2013-03-17 23:49:00,21.9,15.8,30.39,North,0,0.0,0.0,77,0.00,,---,0.00,VWS V13.01,2013-03-18 06:49:00,
2013-03-17 23:54:00,21.4,15.3,30.39,North,0,0.0,0.0,77,0.00,,---,0.00,VWS V13.01,2013-03-18 06:54:00,
2013-03-17 23:59:00,21.0,14.9,30.39,North,0,0.0,0.0,77,0.00,,---,0.00,VWS V13.01,2013-03-18 06:59:00,